createdAt,value
2024-03-31T00:08:40.800Z,8.5
2024-03-31T00:18:40.759Z,8.6
2024-03-31T00:28:40.737Z,8.5
2024-03-31T00:38:40.708Z,8.5
2024-03-31T00:48:40.662Z,8.6
2024-03-31T00:58:40.635Z,8.5
2024-03-31T01:08:40.601Z,8.4
2024-03-31T01:18:40.554Z,8.2
2024-03-31T01:28:40.530Z,8.2
2024-03-31T01:38:40.490Z,8.1
2024-03-31T01:48:40.450Z,8.2
2024-03-31T01:58:40.439Z,8.3
2024-03-31T02:08:40.377Z,8.3
2024-03-31T02:18:40.356Z,8.5
2024-03-31T02:28:40.319Z,8.6
2024-03-31T02:38:40.308Z,8.7
2024-03-31T02:48:40.267Z,8.8
2024-03-31T02:58:40.225Z,8.9
2024-03-31T03:08:40.190Z,9
2024-03-31T03:18:40.153Z,9
2024-03-31T03:28:40.112Z,9
2024-03-31T03:38:40.073Z,9.1
2024-03-31T03:48:40.037Z,9.1
2024-03-31T03:58:40.020Z,9.1
2024-03-31T04:08:39.991Z,9.1
2024-03-31T04:18:39.931Z,9.2
2024-03-31T04:28:39.916Z,9.1
2024-03-31T04:48:39.834Z,9.2
2024-03-31T04:58:39.797Z,9.3
2024-03-31T05:08:39.793Z,9.3
2024-03-31T05:18:39.730Z,9.3
2024-03-31T05:28:39.695Z,9.3
2024-03-31T05:38:39.669Z,9.3
2024-03-31T05:48:39.637Z,9.3
2024-03-31T05:58:39.588Z,9.3
2024-03-31T06:08:39.556Z,9.4
2024-03-31T06:18:39.508Z,9.5
2024-03-31T06:28:39.486Z,9.6
2024-03-31T06:38:39.455Z,9.6
2024-03-31T06:48:39.432Z,9.7
2024-03-31T06:58:39.386Z,9.8
2024-03-31T07:08:39.586Z,9.8
2024-03-31T07:18:39.331Z,10
2024-03-31T07:28:39.588Z,10.1
2024-03-31T07:38:39.331Z,10.2
2024-03-31T07:48:39.539Z,10.4
2024-03-31T07:58:39.254Z,10.6
2024-03-31T08:08:39.124Z,10.8
2024-03-31T08:18:39.089Z,10.9
2024-03-31T08:28:39.258Z,11.1
2024-03-31T08:38:39.040Z,11.4
2024-03-31T08:48:38.984Z,11.5
2024-03-31T08:58:38.954Z,11.7
2024-03-31T09:08:38.910Z,12.1
2024-03-31T09:18:38.883Z,12.3
2024-03-31T09:28:38.832Z,12.7
2024-03-31T09:38:38.792Z,12.9
2024-03-31T09:48:38.754Z,13.1
2024-03-31T09:58:38.717Z,13.3
2024-03-31T10:08:38.680Z,13.4
2024-03-31T10:18:38.639Z,13.8
2024-03-31T10:28:38.614Z,14.1
2024-03-31T10:38:38.631Z,14.2
2024-03-31T10:48:38.522Z,14.5
2024-03-31T10:58:38.508Z,14.5
2024-03-31T11:08:38.455Z,14.6
2024-03-31T11:18:38.427Z,14.8
2024-03-31T11:28:38.373Z,15.3
2024-03-31T11:38:38.359Z,15.2
2024-03-31T11:48:38.310Z,15.6
2024-03-31T11:58:38.262Z,15.7
2024-03-31T12:08:38.233Z,15.7
2024-03-31T12:18:38.204Z,15.8
2024-03-31T12:28:38.151Z,15.8
2024-03-31T12:38:38.110Z,16
2024-03-31T12:48:38.077Z,15.8
2024-03-31T12:58:38.038Z,15.8
2024-03-31T13:08:37.986Z,15.8
2024-03-31T13:18:37.967Z,15.8
2024-03-31T13:28:37.914Z,15.9
2024-03-31T13:38:37.883Z,16.2
2024-03-31T13:48:37.848Z,16.8
2024-03-31T13:58:37.800Z,17
2024-03-31T14:08:37.771Z,17
2024-03-31T14:18:37.737Z,16.9
2024-03-31T14:28:37.693Z,17
2024-03-31T14:38:37.746Z,16.9
2024-03-31T14:48:37.601Z,16.9
2024-03-31T14:58:37.574Z,16.9
2024-03-31T15:08:37.542Z,17
2024-03-31T15:18:37.499Z,17.1
2024-03-31T15:28:37.448Z,17.1
2024-03-31T15:38:37.413Z,17
2024-03-31T15:48:37.382Z,16.8
2024-03-31T15:58:37.669Z,16.7
2024-03-31T16:08:37.296Z,16.6
2024-03-31T16:18:37.264Z,16.4
2024-03-31T16:28:37.223Z,16.2
2024-03-31T16:38:37.177Z,13.7
2024-03-31T16:48:37.153Z,12.9
2024-03-31T16:58:37.093Z,12.6
2024-03-31T17:08:37.069Z,12.4
2024-03-31T17:18:37.049Z,12.6
2024-03-31T17:28:37.007Z,12.7
2024-03-31T17:38:36.968Z,12.6
2024-03-31T17:48:36.920Z,12.6
2024-03-31T17:58:36.884Z,12.7
2024-03-31T18:08:36.861Z,12.5
2024-03-31T18:18:36.818Z,12.2
2024-03-31T18:28:36.772Z,12.1
2024-03-31T18:38:36.739Z,12
2024-03-31T18:48:36.694Z,11.9
2024-03-31T18:58:36.667Z,12
2024-03-31T19:08:36.620Z,11.8
2024-03-31T19:18:36.613Z,11.8
2024-03-31T19:28:36.568Z,11.7
2024-03-31T19:38:36.524Z,11.6
2024-03-31T19:48:36.489Z,11.5
2024-03-31T19:58:36.439Z,11.5
2024-03-31T20:08:36.426Z,11.5
2024-03-31T20:18:36.381Z,11.5
2024-03-31T20:28:36.339Z,11.4
2024-03-31T20:38:36.301Z,11.4
2024-03-31T20:48:36.268Z,11.4
2024-03-31T20:58:36.233Z,11.4
2024-03-31T21:08:36.196Z,11.4
2024-03-31T21:18:36.144Z,11.3
2024-03-31T21:28:36.119Z,11.3
2024-03-31T21:38:36.091Z,11.3
2024-03-31T21:48:36.052Z,11.2
2024-03-31T21:58:36.022Z,11.1
2024-03-31T22:08:35.978Z,11
2024-03-31T22:18:35.933Z,10.9
2024-03-31T22:28:35.915Z,10.8
2024-03-31T22:38:35.874Z,10.8
2024-03-31T22:48:35.839Z,10.8
2024-03-31T22:58:35.792Z,10.7
2024-03-31T23:08:35.741Z,10.7
2024-03-31T23:18:35.729Z,10.6
2024-03-31T23:28:35.696Z,10.5
2024-03-31T23:38:35.659Z,10.5
2024-03-31T23:48:35.613Z,10.5
2024-03-31T23:58:35.578Z,10.5
